Latest Weather Observations for Delamere

IDD60801

Issued at 9:35 pm CST Sunday 23 November 2014 (issued every 30 minutes, with the page automatically refreshed every 10 minutes)

About weather observations | Map of weather stations | Latest weather observations for NT | Other Formats
Station Details ID: 014949 Name: DELAMERE WEAPONS RANGE Lat: -15.74 Lon: 131.92 Height: 221.0 m
Data from the previous 72 hours. | See also: Recent months at Delamere
Date/Time
CST
Temp
°C
App
Temp
°C
Dew
Point
Rel
Hum
%
Delta-T
°C
Wind Press
QNH
hPa
Press
MSL
hPa
Rain
since 9 am
mm
Dir
 
Spd
km/h
Gust
km/h
Spd
kts
Gust
kts
23/09:30pm 33.2 43.8 30.7 87 1.9 CALM 0 0 0 0 1008.6 - 0.0
23/09:00pm 34.0 44.3 30.3 81 2.8 CALM 0 0 0 0 1008.3 1006.6 0.0
23/08:30pm 33.8 43.9 30.1 81 2.8 CALM 0 0 0 0 1008.0 - 0.0
23/08:00pm 34.3 42.7 29.7 77 3.5 ESE 7 9 4 5 1007.5 - 0.0
23/07:30pm 34.7 44.0 30.1 77 3.5 S 4 9 2 5 1007.1 - 0.0
23/07:00pm 35.6 46.8 31.4 79 3.2 CALM 0 0 0 0 1006.7 - 0.0
23/06:30pm 36.7 47.6 32.0 77 3.6 SSW 4 7 2 4 1006.4 - 0.0
23/06:00pm 38.1 49.6 32.2 72 4.6 SSW 2 9 1 5 1006.1 1004.3 0.0
23/05:30pm 39.1 49.6 32.6 70 5.1 NE 9 13 5 7 1005.8 - 0.0
23/05:00pm 38.8 50.6 32.1 69 5.2 CALM 0 0 0 0 1005.7 - 0.0
23/04:30pm 39.2 49.4 32.2 68 5.4 WSW 9 15 5 8 1005.7 - 0.0
23/04:00pm 38.7 47.9 31.5 67 5.5 N 11 15 6 8 1006.1 - 0.0
23/03:30pm 38.9 48.2 31.6 66 5.6 E 11 22 6 12 1006.6 - 0.0
23/03:00pm 38.6 47.0 30.6 64 6.1 NE 11 19 6 10 1006.9 1005.1 0.0
23/02:30pm 38.9 47.0 31.6 66 5.6 N 17 30 9 16 1007.5 - 0.0
23/02:00pm 38.5 46.6 30.2 63 6.3 NE 11 20 6 11 1008.2 - 0.0
23/01:30pm 37.8 46.0 30.3 65 5.7 N 11 20 6 11 1008.6 - 0.0
23/01:00pm 37.3 47.1 31.4 72 4.5 ESE 7 13 4 7 1009.3 - 0.0
23/12:30pm 37.6 47.3 31.7 72 4.5 SW 9 15 5 8 1010.0 - 0.0
23/12:00pm 36.8 45.2 31.1 72 4.4 S 13 20 7 11 1010.6 1008.8 0.0
23/11:30am 36.0 45.4 31.3 77 3.6 SSW 9 17 5 9 1011.0 - 0.0
23/11:00am 35.3 45.1 31.3 80 3.1 SSE 7 13 4 7 1011.5 - 0.0
23/10:30am 34.0 43.6 30.9 84 2.4 SW 6 11 3 6 1011.8 - 0.0
23/10:00am 33.1 43.1 31.4 91 1.3 NW 6 11 3 6 1012.0 - 0.0
23/09:30am 31.9 41.7 31.4 97 0.4 W 7 13 4 7 1012.1 - 0.0
23/09:00am 31.1 39.9 30.6 97 0.4 SW 9 13 5 7 1012.1 1010.3 3.0
23/08:30am 30.1 38.1 29.6 97 0.4 WSW 9 15 5 8 1011.9 - 3.0
23/08:00am 29.3 - 29.5 - - WNW 9 13 5 7 1011.6 - 3.0
23/07:30am 28.0 - 29.0 - - NW 11 13 6 7 1011.5 - 3.0
23/07:00am 26.8 - - - - WNW 7 11 4 6 1011.2 - 3.0
23/06:30am 26.1 - - - - CALM 0 2 0 1 1010.8 - 3.0
23/06:00am 26.0 - - - - W 7 11 4 6 1010.6 1008.8 3.0
23/05:30am 26.5 - - - - NW 4 7 2 4 1010.3 - 3.0
23/05:00am 27.2 - - - - NW 7 9 4 5 1010.1 - 3.0
23/04:30am 27.1 - - - - NW 11 15 6 8 1010.0 - 3.0
23/04:00am 27.0 - - - - CALM 0 6 0 3 1010.5 - 3.0
23/03:30am 27.5 - - - - N 7 9 4 5 1010.4 - 3.0
23/03:00am 27.2 - - - - N 11 15 6 8 1010.3 1008.5 3.0
23/02:30am 26.4 - - - - CALM 0 0 0 0 1009.8 - 3.0
23/02:00am 26.5 - - - - W 7 11 4 6 1009.7 - 3.0
23/01:30am 26.8 - - - - CALM 0 0 0 0 1009.7 - 3.0
23/01:00am 27.1 - - - - CALM 0 0 0 0 1010.0 - 3.0
23/12:30am 27.6 - 28.6 - - CALM 0 0 0 0 1010.2 - 3.0
23/12:00am 28.2 - 28.5 - - SW 9 13 5 7 1010.4 1008.6 3.0
 
Date/Time
CST
Temp
°C
App
Temp
°C
Dew
Point
Rel
Hum
%
Delta-T
°C
Wind Press
QNH
hPa
Press
MSL
hPa
Rain
since 9 am
mm
Dir
 
Spd
km/h
Gust
km/h
Spd
kts
Gust
kts
22/11:30pm 28.7 35.2 28.2 97 0.4 SSW 11 13 6 7 1010.5 - 2.8
22/11:00pm 29.4 35.9 28.7 96 0.5 SSW 13 19 7 10 1010.7 - 2.8
22/10:30pm 29.9 36.4 28.6 93 1.0 SSW 13 19 7 10 1010.6 - 2.8
22/10:00pm 29.3 36.9 28.6 96 0.5 WSW 7 9 4 5 1010.4 - 2.8
22/09:30pm 29.6 36.4 28.5 94 0.8 SSW 11 15 6 8 1010.2 - 2.8
22/09:00pm 29.2 - 29.5 - - SSW 9 13 5 7 1010.1 1008.3 2.8
22/08:30pm 29.2 - 29.5 - - SSW 9 11 5 6 1009.7 - 2.8
22/08:00pm 28.6 - - - - SSW 9 13 5 7 1009.0 - 2.8
22/07:30pm 28.8 - - - - SW 7 9 4 5 1008.7 - 2.8
22/07:00pm 29.7 - 30.9 - - WNW 7 9 4 5 1008.4 - 2.8
22/06:30pm 29.8 - 30.7 - - WNW 9 13 5 7 1008.1 - 2.8
22/06:00pm 31.0 - 32.2 - - NNW 6 7 3 4 1007.7 1005.9 2.8
22/05:30pm 28.5 - 29.6 - - S 20 28 11 15 1007.1 - 2.8
22/05:00pm 31.0 34.7 28.2 85 2.1 WNW 26 41 14 22 1007.2 - 0.0
22/04:55pm 31.7 34.9 28.0 81 2.7 NW 28 48 15 26 1007.2 - 0.0
22/04:44pm 33.0 33.3 28.0 75 3.7 N 43 61 23 33 1007.0 - 0.0
22/04:39pm 32.6 31.8 27.8 76 3.5 N 48 61 26 33 1006.8 - 0.0
22/04:34pm 35.8 39.5 29.2 69 4.9 NE 30 50 16 27 1006.8 - 0.0
22/04:30pm 37.7 44.5 30.5 67 5.5 E 19 24 10 13 1006.6 - 0.0
22/04:00pm 39.1 46.6 31.3 65 6.0 NE 19 28 10 15 1006.8 - 0.0
22/03:30pm 38.8 45.8 30.7 63 6.2 ENE 19 30 10 16 1007.0 - 0.0
22/03:00pm 39.0 46.6 31.7 66 5.6 NNE 20 30 11 16 1007.1 1005.3 0.0
22/02:30pm 38.6 47.4 31.1 66 5.7 N 11 19 6 10 1007.7 - 0.0
22/02:00pm 37.9 45.8 30.4 65 5.7 NNE 13 24 7 13 1008.4 - 0.0
22/01:30pm 37.6 46.5 31.2 70 4.9 E 11 19 6 10 1009.0 - 0.0
22/01:00pm 37.8 48.3 32.6 75 4.0 S 9 15 5 8 1009.5 - 0.0
22/12:30pm 36.9 46.6 31.7 75 4.0 E 9 15 5 8 1010.3 - 0.0
22/12:00pm 36.2 46.3 31.7 77 3.5 SW 7 13 4 7 1010.8 1009.0 0.0
22/11:30am 35.3 46.4 32.6 86 2.1 N 6 11 3 6 1011.1 - 0.0
22/11:00am 34.5 44.7 31.8 86 2.1 WNW 7 9 4 5 1011.5 - 0.0
22/10:30am 34.6 45.0 33.3 93 1.0 SW 13 22 7 12 1011.7 - 0.0
22/10:00am 33.8 45.6 32.9 95 0.7 ESE 4 7 2 4 1012.0 - 0.0
22/09:30am 32.2 41.8 32.0 99 0.2 WSW 11 17 6 9 1012.1 - 0.0
22/09:00am 31.7 - 31.9 - - NW 9 13 5 7 1012.0 1010.2 6.2
22/08:30am 30.5 39.0 30.3 99 0.2 NW 9 15 5 8 1012.0 - 6.2
22/08:00am 29.7 37.0 29.7 100 0.0 NNW 13 19 7 10 1011.7 - 6.2
22/07:30am 29.1 - 29.6 - - N 13 19 7 10 1011.4 - 6.2
22/07:00am 28.6 - 29.8 - - N 4 11 2 6 1011.1 - 6.2
22/06:30am 27.7 - - - - CALM 0 0 0 0 1010.6 - 6.2
22/06:00am 27.6 - - - - CALM 0 0 0 0 1010.4 1008.6 6.2
22/05:30am 27.8 - - - - WSW 2 9 1 5 1010.2 - 6.2
22/05:00am 28.2 - - - - CALM 0 0 0 0 1010.3 - 6.2
22/04:30am 29.1 - 30.1 - - W 7 13 4 7 1009.5 - 6.2
22/04:00am 29.5 - 30.0 - - WNW 11 15 6 8 1009.2 - 6.2
22/03:30am 29.9 - 30.2 - - WNW 13 19 7 10 1009.1 - 6.2
22/03:00am 30.0 - 30.3 - - WNW 11 13 6 7 1009.0 1007.3 6.2
22/02:30am 30.1 38.1 30.1 100 0.0 NW 11 15 6 8 1008.7 - 6.2
22/02:00am 30.1 38.2 29.7 98 0.3 NW 9 11 5 6 1008.5 - 6.2
22/01:30am 30.3 38.0 29.2 94 0.8 NNW 9 11 5 6 1008.7 - 6.2
22/01:00am 30.6 38.2 28.6 89 1.5 NW 7 13 4 7 1008.8 - 6.2
22/12:30am 31.0 38.8 29.4 91 1.2 N 9 11 5 6 1009.0 - 6.2
22/12:00am 29.8 - 30.0 - - N 7 9 4 5 1009.3 1007.6 6.2
 
Date/Time
CST
Temp
°C
App
Temp
°C
Dew
Point
Rel
Hum
%
Delta-T
°C
Wind Press
QNH
hPa
Press
MSL
hPa
Rain
since 9 am
mm
Dir
 
Spd
km/h
Gust
km/h
Spd
kts
Gust
kts
21/11:30pm 30.2 38.7 29.8 98 0.3 ENE 7 9 4 5 1009.2 - 6.2
21/11:00pm 31.5 39.6 29.7 90 1.3 N 9 15 5 8 1009.4 - 6.2
21/10:30pm 30.4 40.4 30.0 98 0.3 CALM 0 0 0 0 1009.0 - 6.2
21/10:00pm 31.1 41.8 30.9 99 0.2 CALM 0 0 0 0 1008.8 - 6.2
21/09:30pm 31.5 40.6 28.9 86 1.9 CALM 0 0 0 0 1008.2 - 6.2
21/09:00pm 32.4 39.8 29.3 84 2.3 NNW 11 13 6 7 1008.0 1006.2 6.2
21/08:30pm 32.9 39.1 28.8 79 3.0 N 15 22 8 12 1008.2 - 6.2
21/08:00pm 32.8 38.5 29.3 82 2.6 N 20 28 11 15 1008.0 - 6.2
21/07:30pm 34.1 43.9 31.4 86 2.1 NE 7 24 4 13 1007.5 - 6.2
21/07:00pm 32.0 42.1 31.5 97 0.4 ENE 6 9 3 5 1006.9 - 6.2
21/06:30pm 32.1 39.7 30.1 89 1.5 W 13 24 7 13 1007.0 - 6.2
21/06:12pm 30.4 31.4 26.8 81 2.6 ENE 35 54 19 29 1007.1 - 1.8
21/06:00pm 36.3 37.8 27.0 59 6.8 ENE 33 54 18 29 1006.4 1004.6 0.0
21/05:54pm 37.7 39.3 27.7 56 7.4 ENE 35 54 19 29 1006.4 - 0.0
21/05:30pm 39.4 46.9 29.9 59 7.2 NE 13 20 7 11 1005.8 - 0.0
21/05:00pm 39.4 47.0 29.6 57 7.4 NE 11 20 6 11 1005.7 - 0.0
21/04:30pm 39.9 46.6 30.6 59 7.1 N 20 30 11 16 1006.0 - 0.0
21/04:00pm 39.9 48.3 30.6 59 7.1 N 11 15 6 8 1006.3 - 0.0
21/03:30pm 40.0 48.0 31.9 64 6.3 NNW 19 30 10 16 1006.6 - 0.0
21/03:00pm 39.4 48.9 31.0 62 6.4 ENE 7 19 4 10 1006.9 1005.1 0.0
21/02:30pm 40.3 48.3 31.9 63 6.5 NNE 19 30 10 16 1007.3 - 0.0
21/02:00pm 38.4 47.1 31.4 67 5.4 SSW 13 19 7 10 1007.7 - 0.0
21/01:30pm 39.5 47.8 32.2 66 5.7 NNW 19 24 10 13 1008.4 - 0.0
21/01:00pm 38.3 46.1 30.8 65 5.7 N 15 28 8 15 1009.0 - 0.0
21/12:30pm 38.1 48.6 32.6 73 4.3 WNW 9 20 5 11 1009.5 - 0.0
21/12:00pm 36.2 44.4 30.8 74 4.1 NNW 13 20 7 11 1010.2 1008.4 0.0
21/11:30am 35.9 45.2 32.1 81 2.9 NNW 13 20 7 11 1010.8 - 0.0
21/11:00am 35.1 44.7 32.8 88 1.8 WNW 15 28 8 15 1011.3 - 0.0
21/10:30am 34.2 42.4 32.1 89 1.6 NNW 19 28 10 15 1011.7 - 0.0
21/10:00am 33.4 41.8 32.3 94 0.8 NNW 19 28 10 15 1012.0 - 0.0
21/09:30am 32.4 39.5 31.1 93 1.0 NW 20 28 11 15 1012.3 - 0.0
21/09:00am 32.1 39.3 31.2 95 0.7 NW 20 30 11 16 1012.4 1010.7 0.0
21/08:30am 31.4 39.1 30.7 96 0.5 WNW 15 22 8 12 1012.3 - 0.0
21/08:00am 30.0 36.2 29.8 99 0.1 WNW 19 28 10 15 1012.1 - 0.0
21/07:30am 29.3 - 29.6 - - NW 15 24 8 13 1011.7 - 0.0
21/07:00am 28.3 - 29.1 - - NW 11 17 6 9 1011.3 - 0.0
21/06:30am 27.8 - 28.5 - - NNW 11 15 6 8 1010.9 - 0.0
21/06:00am 27.9 - 28.2 - - N 15 20 8 11 1010.6 1008.8 0.0
21/05:30am 28.2 33.6 27.7 97 0.4 NNW 15 19 8 10 1010.4 - 0.0
21/05:00am 28.4 33.9 27.3 94 0.8 N 13 17 7 9 1010.1 - 0.0
21/04:30am 28.4 33.9 26.8 91 1.2 N 11 15 6 8 1009.9 - 0.0
21/04:00am 28.8 34.1 26.4 87 1.7 N 11 17 6 9 1009.5 - 0.0
21/03:30am 29.2 34.1 25.8 82 2.4 N 11 15 6 8 1009.2 - 0.0
21/03:00am 29.7 34.3 25.9 80 2.7 NNE 13 17 7 9 1009.0 1007.3 0.0
21/02:30am 29.9 34.4 25.2 76 3.3 NE 11 15 6 8 1008.8 - 0.0
21/02:00am 29.8 34.2 25.1 76 3.3 NE 11 19 6 10 1008.9 - 0.0
21/01:30am 29.8 34.7 24.7 74 3.6 NE 7 9 4 5 1008.8 - 0.0
21/01:00am 30.1 35.0 24.7 73 3.8 ENE 7 7 4 4 1008.7 - 0.0
21/12:30am 30.9 36.3 25.5 73 3.9 NE 7 9 4 5 1008.8 - 0.0
21/12:00am 31.0 36.6 25.8 74 3.7 NNE 7 7 4 4 1009.0 1007.3 0.0
 
Date/Time
CST
Temp
°C
App
Temp
°C
Dew
Point
Rel
Hum
%
Delta-T
°C
Wind Press
QNH
hPa
Press
MSL
hPa
Rain
since 9 am
mm
Dir
 
Spd
km/h
Gust
km/h
Spd
kts
Gust
kts
20/11:30pm 31.5 37.7 26.3 74 3.7 N 6 6 3 3 1009.2 - 0.0
20/11:00pm 32.2 39.0 27.2 75 3.6 N 6 7 3 4 1009.3 - 0.0
20/10:30pm 33.1 39.8 27.1 71 4.4 NNE 6 7 3 4 1009.3 - 0.0
20/10:00pm 33.8 40.3 27.1 68 4.9 N 7 9 4 5 1009.0 - 0.0

Other Formats:

Comma delimited format used in spreadsheet applications
http://www.bom.gov.au/fwo/IDD60801/IDD60801.94225.axf

JavaScript Object Notation format (JSON) in row-major order
http://www.bom.gov.au/fwo/IDD60801/IDD60801.94225.json